createdAt,value
2022-10-10T00:01:39.968Z,96835.66
2022-10-10T00:04:06.396Z,96839.41
2022-10-10T00:06:33.673Z,96827.97
2022-10-10T00:09:00.744Z,96835.44
2022-10-10T00:11:27.108Z,96830.47
2022-10-10T00:13:53.540Z,96830.19
2022-10-10T00:16:20.429Z,96821.44
2022-10-10T00:18:47.095Z,96823.47
2022-10-10T00:21:13.628Z,96825.81
2022-10-10T00:23:40.054Z,96827.91
2022-10-10T00:26:09.038Z,96833.75
2022-10-10T00:28:38.710Z,96822.72
2022-10-10T00:31:09.209Z,96820.47
2022-10-10T00:33:35.962Z,96830.44
2022-10-10T00:36:04.194Z,96824.66
2022-10-10T00:38:31.809Z,96821.59
2022-10-10T00:40:58.448Z,96818.81
2022-10-10T00:43:25.750Z,96822.13
2022-10-10T00:45:52.914Z,96822.13
2022-10-10T00:48:27.839Z,96817.31
2022-10-10T00:50:59.004Z,96803.69
2022-10-10T00:53:45.729Z,96811.84
2022-10-10T00:56:13.161Z,96810.84
2022-10-10T00:58:45.209Z,96800.38
2022-10-10T01:01:11.635Z,96810.56
2022-10-10T01:03:38.194Z,96806.69
2022-10-10T01:06:05.302Z,96803.69
2022-10-10T01:08:32.054Z,96803.28
2022-10-10T01:11:01.247Z,96798.34
2022-10-10T01:13:30.629Z,96800.44
2022-10-10T01:16:00.920Z,96805.94
2022-10-10T01:18:30.437Z,96808.41
2022-10-10T01:20:56.788Z,96802.91
2022-10-10T01:23:36.222Z,96798.63
2022-10-10T01:26:08.542Z,96804.69
2022-10-10T01:28:38.002Z,96797.66
2022-10-10T01:31:06.424Z,96789.66
2022-10-10T01:33:38.618Z,96800.66
2022-10-10T01:36:12.767Z,96793.50
2022-10-10T01:38:45.955Z,96795.13
2022-10-10T01:41:27.453Z,96791.28
2022-10-10T01:43:57.673Z,96796.00
2022-10-10T01:46:24.617Z,96790.03
2022-10-10T01:48:52.488Z,96784.66
2022-10-10T01:51:45.390Z,96791.53
2022-10-10T01:54:11.756Z,96792.66
2022-10-10T01:56:47.873Z,96787.19
2022-10-10T01:59:21.375Z,96790.06
2022-10-10T02:01:50.553Z,96785.25
2022-10-10T02:04:28.456Z,96781.50
2022-10-10T02:06:57.520Z,96779.47
2022-10-10T02:09:31.280Z,96772.84
2022-10-10T02:11:59.126Z,96783.34
2022-10-10T02:14:29.297Z,96783.88
2022-10-10T02:16:57.901Z,96778.34
2022-10-10T02:19:25.477Z,96784.56
2022-10-10T02:21:53.079Z,96771.88
2022-10-10T02:24:21.327Z,96772.84
2022-10-10T02:26:52.797Z,96787.19
2022-10-10T02:29:28.889Z,96783.88
2022-10-10T02:32:14.135Z,96781.09
2022-10-10T02:34:43.108Z,96782.75
2022-10-10T02:37:12.577Z,96773.09
2022-10-10T02:39:43.632Z,96777.38
2022-10-10T02:42:12.007Z,96776.78
2022-10-10T02:44:39.004Z,96773.03
2022-10-10T02:47:05.777Z,96775.53
2022-10-10T02:49:33.792Z,96768.63
2022-10-10T02:52:00.306Z,96766.44
2022-10-10T02:54:26.960Z,96773.63
2022-10-10T02:56:53.694Z,96767.94
2022-10-10T02:59:20.078Z,96766.28
2022-10-10T03:01:46.848Z,96771.53
2022-10-10T03:04:13.519Z,96775.53
2022-10-10T03:06:39.908Z,96768.75
2022-10-10T03:09:06.313Z,96771.53
2022-10-10T03:11:32.776Z,96775.78
2022-10-10T03:13:59.198Z,96766.97
2022-10-10T03:16:25.588Z,96764.34
2022-10-10T03:18:51.951Z,96763.66
2022-10-10T03:21:18.524Z,96767.94
2022-10-10T03:23:44.885Z,96763.00
2022-10-10T03:26:11.268Z,96762.69
2022-10-10T03:28:37.890Z,96756.50
2022-10-10T03:31:04.605Z,96759.13
2022-10-10T03:33:30.990Z,96753.34
2022-10-10T03:35:57.349Z,96757.59
2022-10-10T03:38:23.753Z,96758.28
2022-10-10T03:40:50.179Z,96751.25
2022-10-10T03:43:16.555Z,96744.06
2022-10-10T03:45:44.057Z,96750.13
2022-10-10T03:48:10.800Z,96743.91
2022-10-10T03:50:37.670Z,96740.47
2022-10-10T03:53:04.318Z,96741.28
2022-10-10T03:55:30.675Z,96738.94
2022-10-10T03:57:57.154Z,96739.09
2022-10-10T04:00:23.531Z,96743.38
2022-10-10T04:02:50.176Z,96736.22
2022-10-10T04:05:16.768Z,96730.50
2022-10-10T04:07:43.146Z,96728.41
2022-10-10T04:10:09.982Z,96730.72
2022-10-10T04:12:36.420Z,96730.44
2022-10-10T04:15:02.928Z,96730.59
2022-10-10T04:17:29.297Z,96721.88
2022-10-10T04:19:55.646Z,96714.84
2022-10-10T04:22:22.010Z,96714.69
2022-10-10T04:24:48.481Z,96712.75
2022-10-10T04:27:14.870Z,96705.41
2022-10-10T04:29:41.458Z,96708.19
2022-10-10T04:32:08.002Z,96706.56
2022-10-10T04:34:34.382Z,96695.59
2022-10-10T04:37:00.769Z,96698.22
2022-10-10T04:39:27.170Z,96691.78
2022-10-10T04:41:53.526Z,96703.41
2022-10-10T04:44:19.910Z,96699.28
2022-10-10T04:46:46.395Z,96696.81
2022-10-10T04:49:12.810Z,96697.31
2022-10-10T04:51:39.183Z,96698.97
2022-10-10T04:54:05.619Z,96703.94
2022-10-10T04:56:32.059Z,96708.19
2022-10-10T04:58:58.423Z,96707.50
2022-10-10T05:01:24.833Z,96705.19
2022-10-10T05:03:51.222Z,96706.16
2022-10-10T05:06:17.578Z,96709.75
2022-10-10T05:08:43.936Z,96716.56
2022-10-10T05:11:10.296Z,96707.91
2022-10-10T05:13:36.690Z,96709.00
2022-10-10T05:16:03.144Z,96704.06
2022-10-10T05:18:29.535Z,96713.25
2022-10-10T05:20:58.721Z,96708.69
2022-10-10T05:23:29.019Z,96710.75
2022-10-10T05:25:55.374Z,96713.06
2022-10-10T05:28:21.792Z,96706.31
2022-10-10T05:30:48.189Z,96704.22
2022-10-10T05:33:14.538Z,96711.13
2022-10-10T05:35:40.953Z,96706.03
2022-10-10T05:38:07.399Z,96704.22
2022-10-10T05:40:33.871Z,96707.13
2022-10-10T05:43:00.248Z,96702.34
2022-10-10T05:45:26.607Z,96703.47
2022-10-10T05:47:52.989Z,96703.09
2022-10-10T05:50:25.262Z,96700.59
2022-10-10T05:52:51.988Z,96698.53
2022-10-10T05:55:18.506Z,96701.66
2022-10-10T05:57:44.871Z,96711.00
2022-10-10T06:00:11.529Z,96708.94
2022-10-10T06:02:37.927Z,96706.84
2022-10-10T06:05:04.789Z,96701.97
2022-10-10T06:07:51.811Z,96701.97
2022-10-10T06:10:17.530Z,96701.16
2022-10-10T06:12:43.889Z,96705.25
2022-10-10T06:15:10.549Z,96700.03
2022-10-10T06:17:36.919Z,96704.31
2022-10-10T06:20:03.880Z,96700.03
2022-10-10T06:22:30.278Z,96699.19
2022-10-10T06:24:56.671Z,96695.44
2022-10-10T06:27:23.321Z,96691.41
2022-10-10T06:29:49.705Z,96693.50
2022-10-10T06:32:16.101Z,96696.72
2022-10-10T06:34:42.478Z,96697.78
2022-10-10T06:37:08.885Z,96704.50
2022-10-10T06:39:35.246Z,96698.69
2022-10-10T06:42:01.647Z,96701.69
2022-10-10T06:44:28.011Z,96690.66
2022-10-10T06:46:54.370Z,96701.16
2022-10-10T06:49:20.738Z,96703.25
2022-10-10T06:51:47.516Z,96701.81
2022-10-10T06:54:13.888Z,96703.22
2022-10-10T06:56:40.328Z,96691.25
2022-10-10T06:59:06.706Z,96702.31
2022-10-10T07:01:33.119Z,96697.16
2022-10-10T07:03:59.567Z,96706.00
2022-10-10T07:06:26.226Z,96704.09
2022-10-10T07:08:52.584Z,96708.59
2022-10-10T07:11:18.970Z,96694.97
2022-10-10T07:13:45.356Z,96703.81
2022-10-10T07:16:11.867Z,96702.25
2022-10-10T07:18:38.328Z,96691.75
2022-10-10T07:21:04.956Z,96692.16
2022-10-10T07:23:32.872Z,96698.00
2022-10-10T07:26:00.825Z,96688.25
2022-10-10T07:28:27.924Z,96687.41
2022-10-10T07:30:59.292Z,96684.72
2022-10-10T07:33:25.678Z,96689.97
2022-10-10T07:35:55.170Z,96686.66
2022-10-10T07:38:21.531Z,96688.03
2022-10-10T07:40:47.906Z,96685.94
2022-10-10T07:43:14.538Z,96680.84
2022-10-10T07:45:40.917Z,96690.66
2022-10-10T07:48:07.304Z,96677.78
2022-10-10T07:50:33.694Z,96683.75
2022-10-10T07:53:00.112Z,96689.22
2022-10-10T07:55:26.844Z,96679.41
2022-10-10T07:57:53.542Z,96677.53
2022-10-10T08:00:20.217Z,96672.75
2022-10-10T08:02:46.704Z,96676.72
2022-10-10T08:05:13.118Z,96672.25
2022-10-10T08:07:39.504Z,96670.22
2022-10-10T08:10:06.643Z,96672.00
2022-10-10T08:12:33.070Z,96673.34
2022-10-10T08:15:00.831Z,96668.31
2022-10-10T08:17:27.288Z,96670.97
2022-10-10T08:19:53.745Z,96656.34
2022-10-10T08:22:20.127Z,96656.72
2022-10-10T08:24:46.472Z,96657.09
2022-10-10T08:27:14.588Z,96649.91
2022-10-10T08:29:40.950Z,96651.44
2022-10-10T08:32:07.308Z,96654.78
2022-10-10T08:34:33.728Z,96646.25
2022-10-10T08:37:00.111Z,96639.84
2022-10-10T08:39:26.536Z,96646.78
2022-10-10T08:41:56.636Z,96635.78
2022-10-10T08:44:43.690Z,96637.94
2022-10-10T08:47:10.208Z,96633.03
2022-10-10T08:49:42.585Z,96637.31
2022-10-10T08:52:29.280Z,96623.19
2022-10-10T08:54:58.667Z,96623.84
2022-10-10T08:57:27.148Z,96622.88
2022-10-10T08:59:56.442Z,96613.81
2022-10-10T09:02:38.293Z,96615.47
2022-10-10T09:05:17.864Z,96602.41
2022-10-10T09:07:44.331Z,96606.34
2022-10-10T09:10:35.993Z,96601.34
2022-10-10T09:13:09.560Z,96597.34
2022-10-10T09:15:45.752Z,96596.16
2022-10-10T09:18:20.999Z,96591.34
2022-10-10T09:20:53.334Z,96601.44
2022-10-10T09:23:35.083Z,96591.34
2022-10-10T09:26:11.005Z,96584.16
2022-10-10T09:28:46.989Z,96587.50
2022-10-10T09:31:22.400Z,96586.56
2022-10-10T09:33:53.768Z,96582.94
2022-10-10T09:36:23.736Z,96574.44
2022-10-10T09:38:52.916Z,96582.72
2022-10-10T09:41:25.420Z,96573.38
2022-10-10T09:44:05.041Z,96572.31
2022-10-10T09:46:31.399Z,96559.72
2022-10-10T09:48:57.990Z,96564.06
2022-10-10T09:51:24.367Z,96559.94
2022-10-10T09:53:50.931Z,96554.34
2022-10-10T09:56:25.681Z,96551.41
2022-10-10T09:58:53.244Z,96545.41
2022-10-10T10:01:21.238Z,96548.44
2022-10-10T10:04:17.319Z,96548.38
2022-10-10T10:07:03.247Z,96533.47
2022-10-10T10:09:29.683Z,96537.47
2022-10-10T10:11:56.940Z,96528.19
2022-10-10T10:14:29.231Z,96528.47
2022-10-10T10:17:04.833Z,96531.19
2022-10-10T10:19:41.860Z,96521.28
2022-10-10T10:22:27.221Z,96525.22
2022-10-10T10:24:54.089Z,96510.59
2022-10-10T10:27:22.562Z,96514.78
2022-10-10T10:29:50.853Z,96502.34
2022-10-10T10:32:24.893Z,96506.25
2022-10-10T10:34:53.993Z,96512.84
2022-10-10T10:37:20.453Z,96507.09
2022-10-10T10:39:46.781Z,96505.06
2022-10-10T10:42:41.983Z,96501.31
2022-10-10T10:45:14.405Z,96500.50
2022-10-10T10:47:43.973Z,96493.09
2022-10-10T10:50:10.310Z,96492.41
2022-10-10T10:52:39.755Z,96486.44
2022-10-10T10:55:14.682Z,96484.75
2022-10-10T10:58:00.087Z,96485.53
2022-10-10T11:03:38.491Z,96471.25
2022-10-10T11:06:20.986Z,96470.38
2022-10-10T11:08:57.681Z,96464.22
2022-10-10T11:11:30.093Z,96465.56
2022-10-10T11:14:10.057Z,96463.66
2022-10-10T11:16:58.883Z,96456.00
2022-10-10T11:19:28.040Z,96451.81
2022-10-10T11:22:00.742Z,96451.16
2022-10-10T11:24:47.420Z,96447.63
2022-10-10T11:27:20.040Z,96451.03
2022-10-10T11:29:49.217Z,96433.09
2022-10-10T11:34:51.911Z,96434.97
2022-10-10T11:37:20.915Z,96433.31
2022-10-10T11:39:58.715Z,96434.84
2022-10-10T11:42:47.892Z,96422.25
2022-10-10T11:45:16.075Z,96415.38
2022-10-10T11:48:00.800Z,96416.13
2022-10-10T11:50:34.709Z,96411.50
2022-10-10T11:53:10.384Z,96418.00
2022-10-10T11:55:41.117Z,96411.78
2022-10-10T11:58:07.515Z,96407.19
2022-10-10T12:00:35.906Z,96404.66
2022-10-10T12:03:02.314Z,96396.19
2022-10-10T12:05:29.974Z,96399.56
2022-10-10T12:07:56.357Z,96394.97
2022-10-10T12:10:25.735Z,96388.69
2022-10-10T12:12:55.015Z,96390.22
2022-10-10T12:15:37.245Z,96372.44
2022-10-10T12:18:06.589Z,96376.78
2022-10-10T12:20:36.368Z,96384.19
2022-10-10T12:23:10.212Z,96378.38
2022-10-10T12:25:42.172Z,96382.25
2022-10-10T12:28:14.437Z,96382.81
2022-10-10T12:30:57.721Z,96378.00
2022-10-10T12:33:33.916Z,96372.06
2022-10-10T12:36:21.770Z,96371.16
2022-10-10T12:39:05.859Z,96372.31
2022-10-10T12:41:47.779Z,96358.47
2022-10-10T12:44:32.824Z,96361.50
2022-10-10T12:47:14.548Z,96360.91
2022-10-10T12:49:55.055Z,96358.94
2022-10-10T12:52:21.400Z,96367.66
2022-10-10T12:54:48.679Z,96347.22
2022-10-10T12:57:28.251Z,96354.66
2022-10-10T12:59:57.645Z,96353.84
2022-10-10T13:02:27.965Z,96348.97
2022-10-10T13:04:56.204Z,96354.06
2022-10-10T13:07:23.106Z,96342.19
2022-10-10T13:09:51.223Z,96341.97
2022-10-10T13:12:28.613Z,96339.63
2022-10-10T13:14:55.527Z,96340.31
2022-10-10T13:17:28.070Z,96340.19
2022-10-10T13:19:55.886Z,96327.31
2022-10-10T13:22:22.635Z,96323.69
2022-10-10T13:24:50.376Z,96334.16
2022-10-10T13:27:27.670Z,96337.41
2022-10-10T13:29:54.716Z,96328.34
2022-10-10T13:32:23.240Z,96331.13
2022-10-10T13:34:52.187Z,96325.53
2022-10-10T13:37:19.582Z,96327.88
2022-10-10T13:39:47.687Z,96325.06
2022-10-10T13:42:26.222Z,96326.72
2022-10-10T13:44:54.167Z,96325.56
2022-10-10T13:47:35.868Z,96321.50
2022-10-10T13:50:03.804Z,96324.28
2022-10-10T13:52:30.166Z,96325.06
2022-10-10T13:55:13.731Z,96332.06
2022-10-10T13:57:40.307Z,96330.22
2022-10-10T14:00:14.210Z,96323.13
2022-10-10T14:02:41.556Z,96314.97
2022-10-10T14:05:09.326Z,96320.00
2022-10-10T14:07:36.427Z,96315.13
2022-10-10T14:10:10.388Z,96317.78
2022-10-10T14:12:48.827Z,96316.72
2022-10-10T14:15:33.454Z,96305.94
2022-10-10T14:17:59.822Z,96311.75
2022-10-10T14:20:26.186Z,96303.72
2022-10-10T14:22:52.566Z,96304.44
2022-10-10T14:25:18.962Z,96303.50
2022-10-10T14:27:45.414Z,96304.47
2022-10-10T14:30:14.326Z,96307.69
2022-10-10T14:32:40.746Z,96307.13
2022-10-10T14:35:07.220Z,96306.88
2022-10-10T14:37:34.220Z,96299.66
2022-10-10T14:40:00.716Z,96297.69
2022-10-10T14:42:27.084Z,96291.06
2022-10-10T14:44:53.467Z,96288.28
2022-10-10T14:47:21.426Z,96301.88
2022-10-10T14:49:48.097Z,96290.59
2022-10-10T14:52:14.838Z,96293.72
2022-10-10T14:54:41.237Z,96285.72
2022-10-10T14:57:10.143Z,96283.38
2022-10-10T14:59:47.285Z,96281.97
2022-10-10T15:02:15.121Z,96283.94
2022-10-10T15:04:41.504Z,96284.28
2022-10-10T15:07:13.343Z,96277.53
2022-10-10T15:09:47.450Z,96278.91
2022-10-10T15:12:23.182Z,96274.81
2022-10-10T15:14:49.580Z,96274.19
2022-10-10T15:17:15.950Z,96268.22
2022-10-10T15:19:42.336Z,96267.19
2022-10-10T15:22:08.720Z,96275.75
2022-10-10T15:24:35.172Z,96268.56
2022-10-10T15:27:01.564Z,96273.47
2022-10-10T15:29:28.020Z,96271.38
2022-10-10T15:31:54.401Z,96265.59
2022-10-10T15:34:21.144Z,96265.59
2022-10-10T15:36:47.511Z,96269.19
2022-10-10T15:39:13.878Z,96270.13
2022-10-10T15:41:40.345Z,96262.81
2022-10-10T15:44:12.321Z,96262.72
2022-10-10T15:46:39.584Z,96266.88
2022-10-10T15:49:06.071Z,96266.38
2022-10-10T15:51:32.452Z,96267.50
2022-10-10T15:53:59.251Z,96269.41
2022-10-10T15:56:26.248Z,96262.94
2022-10-10T15:58:56.614Z,96273.81
2022-10-10T16:01:23.553Z,96268.13
2022-10-10T16:03:50.048Z,96266.56
2022-10-10T16:06:17.982Z,96261.06
2022-10-10T16:08:44.641Z,96272.94
2022-10-10T16:11:12.009Z,96280.94
2022-10-10T16:13:39.388Z,96278.47
2022-10-10T16:16:06.775Z,96277.28
2022-10-10T16:18:37.893Z,96283.84
2022-10-10T16:21:07.204Z,96274.25
2022-10-10T16:23:33.812Z,96284.91
2022-10-10T16:26:07.537Z,96280.84
2022-10-10T16:28:34.479Z,96283.69
2022-10-10T16:31:01.890Z,96277.56
2022-10-10T16:33:28.423Z,96286.16
2022-10-10T16:35:54.798Z,96277.19
2022-10-10T16:38:21.258Z,96279.00
2022-10-10T16:40:47.661Z,96275.50
2022-10-10T16:43:14.153Z,96287.94
2022-10-10T16:45:41.332Z,96286.88
2022-10-10T16:48:07.702Z,96283.38
2022-10-10T16:50:34.085Z,96289.47
2022-10-10T16:53:03.062Z,96292.91
2022-10-10T16:55:29.414Z,96285.34
2022-10-10T16:57:59.146Z,96278.19
2022-10-10T17:00:25.571Z,96280.19
2022-10-10T17:02:51.998Z,96278.13
2022-10-10T17:05:18.350Z,96276.66
2022-10-10T17:07:44.717Z,96277.69
2022-10-10T17:10:11.130Z,96276.63
2022-10-10T17:12:37.567Z,96284.94
2022-10-10T17:15:04.437Z,96277.19
2022-10-10T17:17:30.810Z,96284.66
2022-10-10T17:19:57.161Z,96284.78
2022-10-10T17:22:23.586Z,96283.16
2022-10-10T17:24:49.950Z,96283.16
2022-10-10T17:27:16.315Z,96292.13
2022-10-10T17:29:42.682Z,96296.16
2022-10-10T17:32:09.066Z,96292.84
2022-10-10T17:34:35.443Z,96283.63
2022-10-10T17:37:02.150Z,96289.88
2022-10-10T17:39:28.553Z,96288.63
2022-10-10T17:41:55.002Z,96288.19
2022-10-10T17:44:21.421Z,96283.28
2022-10-10T17:46:47.802Z,96281.19
2022-10-10T17:49:14.189Z,96281.97
2022-10-10T17:51:41.293Z,96287.22
2022-10-10T17:54:07.918Z,96285.31
2022-10-10T17:56:34.735Z,96282.63
2022-10-10T17:59:01.908Z,96275.25
2022-10-10T18:01:30.598Z,96275.66
2022-10-10T18:03:57.627Z,96284.50
2022-10-10T18:06:24.153Z,96286.47
2022-10-10T18:08:51.311Z,96284.75
2022-10-10T18:11:19.796Z,96289.53
2022-10-10T18:13:46.189Z,96287.78
2022-10-10T18:16:16.918Z,96290.19
2022-10-10T18:18:49.627Z,96277.72
2022-10-10T18:21:18.220Z,96283.56
2022-10-10T18:23:44.616Z,96278.47
2022-10-10T18:26:15.506Z,96284.66
2022-10-10T18:28:45.341Z,96278.97
2022-10-10T18:31:15.927Z,96284.13
2022-10-10T18:33:44.806Z,96266.97
2022-10-10T18:36:12.388Z,96275.44
2022-10-10T18:38:38.798Z,96274.34
2022-10-10T18:41:09.715Z,96273.72
2022-10-10T18:43:36.654Z,96271.88
2022-10-10T18:46:04.432Z,96269.50
2022-10-10T18:48:31.325Z,96273.16
2022-10-10T18:51:05.890Z,96261.97
2022-10-10T18:53:42.735Z,96266.78
2022-10-10T18:56:09.689Z,96264.25
2022-10-10T18:58:36.602Z,96273.19
2022-10-10T19:01:08.441Z,96276.81
2022-10-10T19:03:35.625Z,96283.75
2022-10-10T19:06:03.012Z,96276.44
2022-10-10T19:08:32.009Z,96276.81
2022-10-10T19:10:58.496Z,96278.19
2022-10-10T19:13:24.992Z,96272.66
2022-10-10T19:15:52.318Z,96262.16
2022-10-10T19:18:19.253Z,96274.44
2022-10-10T19:20:45.671Z,96268.28
2022-10-10T19:23:14.901Z,96264.19
2022-10-10T19:25:42.002Z,96265.97
2022-10-10T19:28:08.692Z,96266.81
2022-10-10T19:30:39.130Z,96266.06
2022-10-10T19:33:05.869Z,96262.34
2022-10-10T19:35:35.852Z,96265.53
2022-10-10T19:38:02.262Z,96263.25
2022-10-10T19:40:28.626Z,96270.78
2022-10-10T19:42:54.996Z,96266.69
2022-10-10T19:45:21.407Z,96268.88
2022-10-10T19:47:47.782Z,96262.06
2022-10-10T19:50:14.193Z,96264.03
2022-10-10T19:52:40.611Z,96267.69
2022-10-10T19:55:07.147Z,96270.03
2022-10-10T19:57:33.504Z,96273.00
2022-10-10T19:59:59.870Z,96276.19
2022-10-10T20:02:26.298Z,96275.72
2022-10-10T20:04:52.668Z,96267.88
2022-10-10T20:07:19.064Z,96274.50
2022-10-10T20:09:45.618Z,96268.28
2022-10-10T20:12:11.993Z,96280.00
2022-10-10T20:14:38.369Z,96280.53
2022-10-10T20:17:04.771Z,96287.81
2022-10-10T20:19:31.183Z,96278.06
2022-10-10T20:21:57.545Z,96276.56
2022-10-10T20:24:23.926Z,96274.56
2022-10-10T20:26:50.318Z,96273.38
2022-10-10T20:29:16.716Z,96270.75
2022-10-10T20:31:43.096Z,96265.03
2022-10-10T20:34:09.704Z,96261.75
2022-10-10T20:36:36.618Z,96271.66
2022-10-10T20:39:08.334Z,96268.72
2022-10-10T20:41:35.193Z,96265.81
2022-10-10T20:44:03.171Z,96277.66
2022-10-10T20:46:31.829Z,96273.13
2022-10-10T20:48:59.215Z,96283.63
2022-10-10T20:51:26.654Z,96277.53
2022-10-10T20:53:57.702Z,96280.47
2022-10-10T20:56:24.577Z,96280.13
2022-10-10T20:58:51.554Z,96279.66
2022-10-10T21:01:19.375Z,96278.09
2022-10-10T21:03:46.473Z,96281.41
2022-10-10T21:06:17.098Z,96284.38
2022-10-10T21:08:43.834Z,96288.34
2022-10-10T21:11:11.722Z,96292.44
2022-10-10T21:13:39.201Z,96287.38
2022-10-10T21:16:06.734Z,96286.22
2022-10-10T21:18:33.538Z,96284.09
2022-10-10T21:21:00.761Z,96292.97
2022-10-10T21:23:28.180Z,96285.06
2022-10-10T21:25:54.578Z,96295.59
2022-10-10T21:28:20.983Z,96293.16
2022-10-10T21:30:51.255Z,96289.88
2022-10-10T21:33:19.990Z,96285.13
2022-10-10T21:35:47.184Z,96297.50
2022-10-10T21:38:14.013Z,96298.69
2022-10-10T21:40:40.441Z,96306.56
2022-10-10T21:43:06.926Z,96301.63
2022-10-10T21:45:33.973Z,96289.13
2022-10-10T21:48:00.330Z,96294.03
2022-10-10T21:50:27.243Z,96298.03
2022-10-10T21:52:53.676Z,96291.47
2022-10-10T21:55:20.370Z,96292.28
2022-10-10T21:57:48.272Z,96297.06
2022-10-10T22:00:14.978Z,96287.22
2022-10-10T22:02:42.103Z,96289.22
2022-10-10T22:05:11.264Z,96295.44
2022-10-10T22:07:38.166Z,96294.00
2022-10-10T22:10:05.478Z,96293.34
2022-10-10T22:12:31.852Z,96298.44
2022-10-10T22:14:58.400Z,96294.78
2022-10-10T22:17:24.900Z,96302.19
2022-10-10T22:19:51.821Z,96295.50
2022-10-10T22:22:18.572Z,96294.53
2022-10-10T22:24:44.954Z,96294.22
2022-10-10T22:27:11.362Z,96294.38
2022-10-10T22:29:37.714Z,96296.19
2022-10-10T22:32:04.113Z,96293.56
2022-10-10T22:34:30.560Z,96295.53
2022-10-10T22:36:57.068Z,96285.34
2022-10-10T22:39:23.434Z,96295.22
2022-10-10T22:41:49.827Z,96294.25
2022-10-10T22:44:17.786Z,96287.69
2022-10-10T22:46:44.159Z,96294.25
2022-10-10T22:49:10.542Z,96293.63
2022-10-10T22:51:37.353Z,96288.53
2022-10-10T22:54:03.900Z,96290.00
2022-10-10T22:56:30.286Z,96290.34
2022-10-10T22:58:56.722Z,96287.03
2022-10-10T23:01:24.251Z,96290.34
2022-10-10T23:03:53.722Z,96286.38
2022-10-10T23:06:20.076Z,96291.97
2022-10-10T23:08:46.443Z,96293.78
2022-10-10T23:11:12.809Z,96290.03
2022-10-10T23:13:39.210Z,96296.44
2022-10-10T23:16:05.884Z,96295.94
2022-10-10T23:18:32.591Z,96295.13
2022-10-10T23:20:58.974Z,96293.16
2022-10-10T23:23:25.694Z,96293.16
2022-10-10T23:25:52.084Z,96290.69
2022-10-10T23:28:18.928Z,96293.66
2022-10-10T23:30:46.428Z,96280.03
2022-10-10T23:33:13.031Z,96286.59
2022-10-10T23:35:39.454Z,96277.91
2022-10-10T23:38:06.073Z,96265.44
2022-10-10T23:40:33.878Z,96277.91
2022-10-10T23:43:00.279Z,96284.66
2022-10-10T23:45:26.680Z,96283.66
2022-10-10T23:47:53.061Z,96283.81
2022-10-10T23:50:19.518Z,96287.44
2022-10-10T23:52:45.886Z,96291.19
2022-10-10T23:55:12.766Z,96293.34
2022-10-10T23:57:39.148Z,96288.91
